Time;durP1;ratioP1;P1;durP2;ratioP2;P2;SDS_P1;SDS_P2;PMS_P1;PMS_P2;Temp;Humidity;BMP_temperature;BMP_pressure;BME280_temperature;BME280_humidity;BME280_pressure;Samples;Min_cycle;Max_cycle;Signal;HPM_P1;HPM_P2
2022/07/22 00:01:34;;;;;;;8.77;5.68;;;21.70;98.50;;;;;;5010664;28;20033;-91
2022/07/22 00:04:01;;;;;;;11.57;5.50;;;21.70;99.10;;;;;;5010919;28;20034;-89
2022/07/22 00:06:28;;;;;;;10.93;5.00;;;21.80;99.10;;;;;;5027307;28;20026;-87
2022/07/22 00:08:54;;;;;;;12.10;5.78;;;21.90;99.30;;;;;;5027291;28;20057;-88
2022/07/22 00:11:21;;;;;;;10.77;5.10;;;21.80;99.90;;;;;;5012836;28;20675;-90
2022/07/22 00:13:47;;;;;;;12.45;4.80;;;21.80;99.90;;;;;;5043775;28;20030;-91
2022/07/22 00:16:13;;;;;;;9.73;5.00;;;21.60;99.90;;;;;;5013188;28;20065;-90
2022/07/22 00:18:38;;;;;;;10.52;5.20;;;21.50;99.90;;;;;;5009833;28;20033;-89
2022/07/22 00:21:04;;;;;;;13.05;5.10;;;21.40;99.90;;;;;;5026153;28;20061;-87
2022/07/22 00:23:30;;;;;;;12.20;5.65;;;21.50;99.90;;;;;;5009112;28;20030;-90
2022/07/22 00:25:56;;;;;;;14.23;5.50;;;21.50;99.90;;;;;;5009833;28;20029;-89
2022/07/22 00:28:21;;;;;;;11.13;4.72;;;21.40;99.90;;;;;;5026195;28;20129;-87
2022/07/22 00:30:47;;;;;;;12.43;5.47;;;21.30;99.90;;;;;;5026029;28;20385;-89
2022/07/22 00:33:13;;;;;;;12.27;5.32;;;21.40;99.90;;;;;;5026089;28;20482;-89
2022/07/22 00:35:40;;;;;;;10.73;5.07;;;21.30;99.90;;;;;;5009728;28;20461;-88
2022/07/22 00:38:06;;;;;;;10.43;4.60;;;21.40;99.90;;;;;;5010431;28;20022;-91
2022/07/22 00:40:31;;;;;;;12.20;5.40;;;21.30;99.90;;;;;;5026128;28;20022;-89
2022/07/22 00:42:57;;;;;;;13.93;5.68;;;20.90;99.90;;;;;;5026356;28;20029;-90
2022/07/22 00:45:23;;;;;;;12.32;5.72;;;20.80;99.90;;;;;;5026043;28;20036;-90
2022/07/22 00:47:49;;;;;;;10.45;6.03;;;20.70;99.90;;;;;;5025931;28;20054;-89
2022/07/22 00:50:15;;;;;;;11.75;6.15;;;20.70;99.90;;;;;;5026592;28;20084;-89
2022/07/22 00:52:41;;;;;;;9.45;5.65;;;20.70;99.90;;;;;;5009975;28;20542;-91
2022/07/22 00:55:07;;;;;;;10.02;5.95;;;20.90;99.90;;;;;;5026197;28;20491;-88
2022/07/22 00:57:33;;;;;;;12.55;6.20;;;20.80;99.90;;;;;;5009152;28;20056;-90
2022/07/22 00:59:59;;;;;;;12.15;5.63;;;20.70;99.90;;;;;;5009737;28;20037;-89
2022/07/22 01:02:25;;;;;;;15.60;6.57;;;20.60;99.90;;;;;;5026179;28;20436;-87
2022/07/22 01:04:51;;;;;;;14.68;5.70;;;20.70;99.90;;;;;;5025882;28;20026;-89
2022/07/22 01:07:17;;;;;;;11.45;5.78;;;20.70;99.90;;;;;;5026140;28;20049;-89
2022/07/22 01:09:47;;;;;;;13.32;5.50;;;20.60;99.90;;;;;;5009480;28;20092;-88
2022/07/22 01:12:13;;;;;;;10.85;5.70;;;20.60;99.90;;;;;;5014000;28;20090;-90
2022/07/22 01:14:39;;;;;;;11.30;5.03;;;20.60;99.90;;;;;;5028525;28;20030;-89
2022/07/22 01:17:05;;;;;;;10.48;5.68;;;20.60;99.90;;;;;;5011878;28;20036;-90
2022/07/22 01:19:30;;;;;;;13.10;5.90;;;20.60;99.90;;;;;;5025735;28;20121;-88
2022/07/22 01:21:56;;;;;;;11.95;5.53;;;20.50;99.90;;;;;;5025725;28;20025;-89
2022/07/22 01:24:22;;;;;;;15.48;5.32;;;20.50;99.90;;;;;;5036196;23;20698;-58
2022/07/22 01:26:48;;;;;;;12.98;5.65;;;20.50;99.90;;;;;;4990910;28;20026;-57
2022/07/22 01:29:13;;;;;;;14.55;5.97;;;20.40;99.90;;;;;;4990947;28;20048;-58
2022/07/22 01:31:39;;;;;;;10.57;5.40;;;20.40;99.90;;;;;;4990908;28;20110;-58
2022/07/22 01:34:05;;;;;;;13.40;5.80;;;20.40;99.90;;;;;;4990978;28;20038;-57
2022/07/22 01:36:31;;;;;;;11.88;6.25;;;20.40;99.90;;;;;;4992774;28;20030;-58
2022/07/22 01:38:57;;;;;;;13.57;6.25;;;20.20;99.90;;;;;;4994553;28;20031;-58
2022/07/22 01:41:22;;;;;;;12.02;6.10;;;20.40;99.90;;;;;;4994375;28;20036;-56
2022/07/22 01:43:48;;;;;;;13.48;6.85;;;20.30;99.90;;;;;;4994442;28;20491;-58
2022/07/22 01:46:14;;;;;;;15.02;6.38;;;20.20;99.90;;;;;;4994406;28;20106;-58
2022/07/22 01:48:40;;;;;;;13.57;7.10;;;20.10;99.90;;;;;;4994260;28;20063;-57
2022/07/22 01:51:06;;;;;;;19.27;7.53;;;19.90;99.90;;;;;;4994557;28;20347;-58
2022/07/22 01:53:32;;;;;;;13.07;6.85;;;19.90;99.90;;;;;;4994216;28;20504;-56
2022/07/22 01:55:58;;;;;;;17.00;7.40;;;19.80;99.90;;;;;;4994391;28;20422;-56
2022/07/22 01:58:24;;;;;;;12.05;7.40;;;19.90;99.90;;;;;;4994212;28;20026;-58
2022/07/22 02:00:49;;;;;;;14.13;8.48;;;19.80;99.90;;;;;;4994122;28;20481;-56
2022/07/22 02:03:16;;;;;;;14.77;8.13;;;19.80;99.90;;;;;;4994051;28;20049;-57
2022/07/22 02:05:41;;;;;;;16.58;8.00;;;19.70;99.90;;;;;;4994217;28;20058;-58
2022/07/22 02:08:09;;;;;;;17.17;9.82;;;19.70;99.90;;;;;;4993959;28;20565;-57
2022/07/22 02:10:36;;;;;;;17.90;9.85;;;19.50;99.90;;;;;;4993837;28;20482;-57
2022/07/22 02:13:02;;;;;;;17.92;9.32;;;19.60;99.90;;;;;;4992470;28;20061;-56
2022/07/22 02:15:28;;;;;;;13.90;8.60;;;19.60;99.90;;;;;;4993883;28;20077;-58
2022/07/22 02:17:54;;;;;;;18.52;10.20;;;19.40;99.90;;;;;;4993633;28;20291;-57
2022/07/22 02:20:21;;;;;;;26.90;9.57;;;19.30;99.90;;;;;;4993896;28;20034;-58
2022/07/22 02:22:47;;;;;;;16.17;10.27;;;19.20;99.90;;;;;;4992665;28;20037;-57
2022/07/22 02:25:13;;;;;;;18.20;9.10;;;18.90;99.90;;;;;;4993494;28;20117;-57
2022/07/22 02:27:40;;;;;;;21.35;11.15;;;18.90;99.90;;;;;;4992186;28;20088;-57
2022/07/22 02:30:06;;;;;;;25.08;10.68;;;18.90;99.90;;;;;;4993570;28;20501;-57
2022/07/22 02:32:32;;;;;;;23.42;10.88;;;19.00;99.90;;;;;;4993440;28;20042;-57
2022/07/22 02:34:57;;;;;;;25.23;9.80;;;19.10;99.90;;;;;;4993679;28;20034;-57
2022/07/22 02:37:23;;;;;;;17.38;10.55;;;19.30;99.90;;;;;;4993544;28;20537;-57
2022/07/22 02:39:49;;;;;;;18.75;9.73;;;19.50;99.90;;;;;;4993480;28;20030;-57
2022/07/22 02:42:15;;;;;;;18.80;10.43;;;19.60;99.90;;;;;;4993327;28;20069;-57
2022/07/22 02:44:40;;;;;;;24.02;10.15;;;19.70;99.90;;;;;;4993201;28;20496;-57
2022/07/22 02:47:06;;;;;;;19.30;11.20;;;19.90;99.90;;;;;;4992972;28;20053;-58
2022/07/22 02:49:32;;;;;;;18.27;10.05;;;19.90;99.90;;;;;;4993421;28;20038;-57
2022/07/22 02:51:58;;;;;;;17.50;10.35;;;19.90;99.90;;;;;;4993116;28;20421;-57
2022/07/22 02:54:23;;;;;;;18.23;10.73;;;19.80;99.90;;;;;;4993026;28;20042;-57
2022/07/22 02:56:49;;;;;;;17.83;9.93;;;19.60;99.90;;;;;;4992902;28;20046;-57
2022/07/22 02:59:15;;;;;;;20.42;10.57;;;19.70;99.90;;;;;;4993041;28;20121;-57
2022/07/22 03:01:40;;;;;;;21.98;9.98;;;19.80;99.90;;;;;;4993036;28;20026;-57
2022/07/22 03:04:06;;;;;;;23.38;11.45;;;19.70;99.90;;;;;;4993092;28;20473;-57
2022/07/22 03:06:32;;;;;;;22.25;10.38;;;19.80;99.90;;;;;;4992998;28;20497;-57
2022/07/22 03:08:57;;;;;;;19.27;10.25;;;19.90;99.90;;;;;;4992991;28;20129;-57
2022/07/22 03:11:23;;;;;;;17.52;10.52;;;19.90;99.90;;;;;;4992796;28;20442;-57
2022/07/22 03:13:49;;;;;;;16.33;9.82;;;20.00;99.90;;;;;;4992837;28;20047;-57
2022/07/22 03:16:14;;;;;;;16.90;9.65;;;20.10;99.90;;;;;;4992475;28;20089;-57
2022/07/22 03:18:40;;;;;;;18.58;9.50;;;20.10;99.90;;;;;;4992838;28;20038;-57
2022/07/22 03:21:06;;;;;;;16.40;9.45;;;20.20;99.90;;;;;;4992772;28;20101;-57
2022/07/22 03:23:31;;;;;;;18.05;10.57;;;20.20;99.90;;;;;;4992506;28;20485;-57
2022/07/22 03:25:57;;;;;;;19.20;9.88;;;20.30;99.90;;;;;;4992558;28;20038;-57
2022/07/22 03:28:23;;;;;;;16.90;10.52;;;20.30;99.90;;;;;;4992468;28;20037;-57
2022/07/22 03:30:49;;;;;;;14.57;9.70;;;20.30;99.90;;;;;;4992363;28;20034;-57
2022/07/22 03:33:15;;;;;;;16.63;10.35;;;20.40;99.90;;;;;;4992319;28;20145;-58
2022/07/22 03:35:40;;;;;;;15.70;9.10;;;20.40;99.90;;;;;;4992425;28;20038;-58
2022/07/22 03:38:06;;;;;;;20.40;10.02;;;20.40;99.90;;;;;;4992243;28;20035;-57
2022/07/22 03:40:32;;;;;;;18.30;10.20;;;20.50;99.90;;;;;;4992242;28;20039;-57
2022/07/22 03:42:58;;;;;;;14.95;10.38;;;20.40;99.90;;;;;;4992055;28;20018;-57
2022/07/22 03:45:23;;;;;;;15.90;10.40;;;20.50;99.90;;;;;;4992122;28;20036;-58
2022/07/22 03:47:49;;;;;;;15.80;9.27;;;20.50;99.90;;;;;;4992147;28;20110;-57
2022/07/22 03:50:15;;;;;;;15.77;10.52;;;20.50;99.90;;;;;;4990760;28;20034;-57
2022/07/22 03:52:40;;;;;;;16.48;10.13;;;20.60;99.90;;;;;;4992236;28;20141;-58
2022/07/22 03:55:07;;;;;;;19.80;9.85;;;20.60;99.90;;;;;;4992164;28;20418;-58
2022/07/22 03:57:33;;;;;;;14.85;10.27;;;20.60;99.90;;;;;;4991809;28;20117;-57
2022/07/22 03:59:59;;;;;;;14.73;9.00;;;20.60;99.90;;;;;;4991292;28;20118;-57
2022/07/22 04:02:24;;;;;;;18.17;10.23;;;20.70;99.90;;;;;;4992049;28;20520;-57
2022/07/22 04:04:50;;;;;;;20.52;10.20;;;20.70;99.90;;;;;;4991860;28;20492;-58
2022/07/22 04:07:16;;;;;;;16.33;9.82;;;20.80;99.90;;;;;;4991678;28;20562;-58
2022/07/22 04:09:41;;;;;;;19.98;10.23;;;20.70;99.90;;;;;;4991824;28;20030;-58
2022/07/22 04:12:07;;;;;;;18.80;9.95;;;20.70;99.90;;;;;;4991808;28;20117;-58
2022/07/22 04:14:33;;;;;;;21.92;9.85;;;20.70;99.90;;;;;;4991442;28;20470;-58
2022/07/22 04:16:58;;;;;;;13.75;9.65;;;20.70;99.90;;;;;;4991527;28;20065;-58
2022/07/22 04:19:24;;;;;;;17.38;10.55;;;20.70;99.90;;;;;;4991513;28;20022;-57
2022/07/22 04:21:50;;;;;;;16.00;9.85;;;20.70;99.90;;;;;;4991652;28;20027;-57
2022/07/22 04:24:16;;;;;;;14.15;9.95;;;20.80;99.90;;;;;;4991372;28;20073;-57
2022/07/22 04:26:41;;;;;;;16.40;10.07;;;20.80;99.90;;;;;;4991486;28;20101;-57
2022/07/22 04:29:07;;;;;;;16.17;9.95;;;20.80;99.90;;;;;;4991366;28;20038;-58
2022/07/22 04:31:32;;;;;;;14.25;9.02;;;20.90;99.90;;;;;;4991458;28;20058;-58
2022/07/22 04:33:59;;;;;;;16.63;10.32;;;21.00;99.90;;;;;;4991403;28;20046;-57
2022/07/22 04:36:25;;;;;;;16.27;9.57;;;21.00;99.90;;;;;;4991400;28;20027;-57
2022/07/22 04:38:51;;;;;;;13.35;9.77;;;21.00;99.90;;;;;;4991293;28;20612;-58
2022/07/22 04:41:16;;;;;;;13.27;8.38;;;21.00;99.90;;;;;;4991473;28;20113;-58
2022/07/22 04:43:42;;;;;;;13.63;8.40;;;21.00;99.90;;;;;;4991276;28;20492;-57
2022/07/22 04:46:08;;;;;;;13.13;9.65;;;21.00;99.90;;;;;;4991461;28;20041;-57
2022/07/22 04:48:34;;;;;;;14.48;9.52;;;21.00;99.90;;;;;;4991258;28;20523;-58
2022/07/22 04:51:01;;;;;;;20.67;9.82;;;20.90;99.90;;;;;;4991392;28;20018;-58
2022/07/22 04:53:27;;;;;;;15.10;8.40;;;21.00;99.90;;;;;;4991211;28;20038;-58
2022/07/22 04:55:53;;;;;;;12.88;9.10;;;21.00;99.90;;;;;;4991229;28;20053;-58
2022/07/22 04:58:19;;;;;;;16.27;10.18;;;21.10;99.90;;;;;;4991119;28;20185;-58
2022/07/22 05:00:46;;;;;;;14.35;9.52;;;21.10;99.90;;;;;;4991368;28;20030;-58
2022/07/22 05:03:12;;;;;;;18.27;9.48;;;21.10;99.90;;;;;;4991044;28;20031;-58
2022/07/22 05:05:38;;;;;;;13.23;9.57;;;21.30;99.90;;;;;;4991166;28;20030;-58
2022/07/22 05:08:04;;;;;;;14.90;9.40;;;21.40;99.90;;;;;;4989611;28;20033;-57
2022/07/22 05:10:29;;;;;;;17.58;8.70;;;21.40;99.90;;;;;;4992925;28;20109;-57
2022/07/22 05:12:55;;;;;;;12.77;8.27;;;21.60;99.90;;;;;;4995123;28;20037;-57
2022/07/22 05:15:21;;;;;;;15.82;9.98;;;21.70;99.90;;;;;;4994802;28;20031;-57
2022/07/22 05:17:47;;;;;;;13.00;8.68;;;21.80;99.90;;;;;;4994978;28;20085;-57
2022/07/22 05:20:13;;;;;;;11.95;7.97;;;22.00;99.90;;;;;;4995027;28;20073;-57
2022/07/22 05:22:38;;;;;;;11.30;8.73;;;22.10;99.90;;;;;;4993550;28;20130;-56
2022/07/22 05:25:05;;;;;;;12.57;8.18;;;22.20;99.90;;;;;;4994676;28;20064;-57
2022/07/22 05:27:31;;;;;;;12.48;8.02;;;22.30;99.90;;;;;;4994798;28;20030;-57
2022/07/22 05:29:57;;;;;;;12.18;8.55;;;22.30;99.90;;;;;;4994828;28;20026;-56
2022/07/22 05:32:23;;;;;;;14.27;8.27;;;22.40;99.90;;;;;;4995153;28;20030;-57
2022/07/22 05:34:48;;;;;;;10.95;7.53;;;22.40;99.90;;;;;;4995273;28;20038;-57
2022/07/22 05:37:15;;;;;;;12.18;7.95;;;22.50;99.90;;;;;;4994533;28;20470;-56
2022/07/22 05:39:42;;;;;;;10.27;8.35;;;22.50;99.90;;;;;;4994491;28;20038;-56
2022/07/22 05:42:08;;;;;;;11.73;8.57;;;22.60;99.90;;;;;;4994778;28;20493;-56
2022/07/22 05:44:34;;;;;;;10.80;7.63;;;22.60;99.90;;;;;;4994454;28;20023;-55
2022/07/22 05:46:59;;;;;;;12.30;7.47;;;22.60;99.90;;;;;;4994189;28;20218;-55
2022/07/22 05:49:26;;;;;;;13.45;8.60;;;22.70;99.90;;;;;;4994244;28;20034;-56
2022/07/22 05:51:53;;;;;;;13.60;8.10;;;22.80;99.90;;;;;;4994254;28;20117;-56
2022/07/22 05:54:19;;;;;;;13.57;8.00;;;22.80;99.90;;;;;;4994191;28;20516;-56
2022/07/22 05:56:45;;;;;;;14.10;8.52;;;22.80;99.90;;;;;;4994171;28;20027;-56
2022/07/22 05:59:11;;;;;;;11.13;7.47;;;22.70;99.90;;;;;;4994217;28;20397;-56
2022/07/22 06:01:37;;;;;;;11.65;7.50;;;22.80;99.90;;;;;;4993937;28;20089;-56
2022/07/22 06:04:03;;;;;;;17.77;8.10;;;22.80;99.90;;;;;;4994011;28;20030;-56
2022/07/22 06:06:28;;;;;;;15.73;8.40;;;22.90;99.90;;;;;;4993943;28;20037;-56
2022/07/22 06:08:54;;;;;;;14.38;8.70;;;22.80;99.90;;;;;;4993865;28;20029;-57
2022/07/22 06:11:20;;;;;;;14.75;8.57;;;22.80;99.90;;;;;;4994009;28;20026;-56
2022/07/22 06:13:46;;;;;;;18.35;9.20;;;22.80;99.90;;;;;;4993766;28;20415;-56
2022/07/22 06:16:12;;;;;;;12.00;7.32;;;22.80;99.90;;;;;;4992042;28;20023;-56
2022/07/22 06:18:37;;;;;;;15.73;7.72;;;22.80;99.90;;;;;;4993827;28;20038;-56
2022/07/22 06:21:05;;;;;;;13.70;7.70;;;22.90;99.90;;;;;;4993520;28;20466;-56
2022/07/22 06:23:31;;;;;;;10.93;8.70;;;22.90;99.90;;;;;;4992994;28;20105;-56
2022/07/22 06:25:56;;;;;;;13.68;8.45;;;22.90;99.90;;;;;;4993812;28;20030;-56
2022/07/22 06:28:22;;;;;;;16.92;8.77;;;22.90;99.90;;;;;;4993596;28;20438;-56
2022/07/22 06:30:48;;;;;;;12.90;8.45;;;23.00;99.90;;;;;;4993502;28;20033;-56
2022/07/22 06:33:14;;;;;;;16.80;9.10;;;23.00;99.90;;;;;;4993533;28;20108;-56
2022/07/22 06:35:40;;;;;;;13.27;8.20;;;23.00;99.90;;;;;;4993462;28;20532;-56
2022/07/22 06:38:06;;;;;;;15.97;9.57;;;23.10;99.90;;;;;;4993434;28;20065;-56
2022/07/22 06:40:35;;;;;;;16.17;8.88;;;23.00;99.90;;;;;;4993345;28;20057;-56
2022/07/22 06:43:01;;;;;;;17.75;7.68;;;23.00;99.90;;;;;;4993272;28;20033;-56
2022/07/22 06:45:27;;;;;;;17.17;8.45;;;23.00;99.90;;;;;;4991966;28;20031;-56
2022/07/22 06:47:53;;;;;;;23.52;8.60;;;23.00;99.90;;;;;;4993135;28;20449;-56
2022/07/22 06:50:18;;;;;;;11.98;8.02;;;23.00;99.90;;;;;;4993087;28;20038;-56
2022/07/22 06:52:44;;;;;;;15.75;8.07;;;23.10;99.90;;;;;;4992963;28;20453;-56
2022/07/22 06:55:12;;;;;;;12.80;8.07;;;23.10;99.90;;;;;;4993056;28;20333;-56
2022/07/22 06:57:37;;;;;;;14.63;8.35;;;23.20;99.90;;;;;;4993216;28;20077;-57
2022/07/22 07:00:06;;;;;;;13.38;8.10;;;23.20;99.90;;;;;;4991668;28;20380;-56
2022/07/22 07:02:32;;;;;;;15.50;8.25;;;23.30;99.90;;;;;;4992715;28;20477;-56
2022/07/22 07:04:57;;;;;;;18.55;9.15;;;23.40;99.90;;;;;;4992900;28;20033;-55
2022/07/22 07:07:23;;;;;;;20.85;10.07;;;23.40;99.90;;;;;;4992606;28;20040;-56
2022/07/22 07:09:49;;;;;;;15.52;9.25;;;23.40;99.90;;;;;;4992744;28;20031;-56
2022/07/22 07:12:14;;;;;;;18.92;10.00;;;23.50;99.90;;;;;;4991452;28;20026;-56
2022/07/22 07:14:40;;;;;;;14.45;9.43;;;23.50;99.90;;;;;;4992537;28;20035;-56
2022/07/22 07:17:06;;;;;;;16.00;9.73;;;23.60;99.90;;;;;;4992434;28;20073;-56
2022/07/22 07:19:32;;;;;;;14.38;8.88;;;23.80;99.90;;;;;;4992534;28;20058;-56
2022/07/22 07:21:57;;;;;;;28.20;9.10;;;23.90;99.90;;;;;;4992678;28;20113;-56
2022/07/22 07:24:23;;;;;;;14.23;8.70;;;23.90;99.90;;;;;;4992220;28;20147;-56
2022/07/22 07:26:50;;;;;;;12.48;8.05;;;24.00;99.90;;;;;;4992364;28;20030;-56
2022/07/22 07:29:16;;;;;;;10.05;7.20;;;24.10;99.90;;;;;;4992473;28;20041;-55
2022/07/22 07:31:42;;;;;;;19.70;8.38;;;24.20;99.90;;;;;;4992244;28;20073;-56
2022/07/22 07:34:07;;;;;;;17.23;8.95;;;24.30;99.90;;;;;;4991450;28;20034;-56
2022/07/22 07:36:33;;;;;;;14.57;7.82;;;24.40;99.90;;;;;;4992158;28;20027;-56
2022/07/22 07:38:58;;;;;;;15.40;8.75;;;24.50;99.90;;;;;;4992353;28;20046;-56
2022/07/22 07:41:24;;;;;;;17.20;8.45;;;24.70;99.90;;;;;;4992284;28;20519;-56
2022/07/22 07:43:50;;;;;;;15.38;8.55;;;24.70;99.90;;;;;;4992194;28;20041;-56
2022/07/22 07:46:17;;;;;;;10.13;7.10;;;24.70;99.90;;;;;;4992071;28;20073;-56
2022/07/22 07:48:43;;;;;;;13.32;8.18;;;24.80;99.90;;;;;;4991999;28;20030;-56
2022/07/22 07:51:08;;;;;;;14.15;8.07;;;24.90;99.90;;;;;;4991918;28;20030;-56
2022/07/22 07:53:34;;;;;;;12.43;8.38;;;25.00;99.90;;;;;;4990484;28;20809;-56
2022/07/22 07:56:00;;;;;;;10.43;8.15;;;25.20;99.90;;;;;;4991878;28;20033;-56
2022/07/22 07:58:25;;;;;;;14.35;8.25;;;25.20;99.90;;;;;;4991780;28;20026;-56
2022/07/22 08:00:51;;;;;;;18.05;8.35;;;25.30;99.90;;;;;;4991854;28;20034;-56
2022/07/22 08:03:17;;;;;;;19.58;8.20;;;25.40;99.90;;;;;;4991659;28;20063;-56
2022/07/22 08:05:43;;;;;;;10.30;7.63;;;25.50;99.90;;;;;;4991662;28;20102;-56
2022/07/22 08:08:08;;;;;;;11.35;7.35;;;25.50;99.90;;;;;;4991741;28;20026;-56
2022/07/22 08:10:34;;;;;;;10.25;7.53;;;25.60;99.90;;;;;;4991637;28;20034;-56
2022/07/22 08:13:00;;;;;;;11.00;7.63;;;25.70;99.90;;;;;;4991847;28;20037;-56
2022/07/22 08:15:27;;;;;;;13.90;8.48;;;25.80;99.90;;;;;;4991558;28;20441;-56
2022/07/22 08:17:53;;;;;;;15.93;8.02;;;26.00;98.60;;;;;;4991531;28;20105;-56
2022/07/22 08:20:19;;;;;;;15.20;7.47;;;26.00;99.90;;;;;;4991537;28;20041;-56
2022/07/22 08:22:45;;;;;;;10.07;7.10;;;26.10;99.60;;;;;;4991392;28;20026;-56
2022/07/22 08:25:11;;;;;;;11.52;7.13;;;26.20;99.90;;;;;;4991348;28;20107;-56
2022/07/22 08:27:37;;;;;;;11.45;7.55;;;26.20;96.00;;;;;;4991445;28;20027;-56
2022/07/22 08:30:05;;;;;;;11.00;7.43;;;26.30;99.90;;;;;;4991464;28;20034;-57
2022/07/22 08:32:32;;;;;;;10.07;7.70;;;26.40;99.90;;;;;;4991374;28;20034;-56
2022/07/22 08:34:57;;;;;;;50.80;10.23;;;26.60;99.90;;;;;;4991205;28;20035;-56
2022/07/22 08:37:23;;;;;;;13.18;8.27;;;26.80;97.90;;;;;;4991607;28;20585;-56
2022/07/22 08:39:49;;;;;;;14.93;8.40;;;26.70;95.30;;;;;;4991444;28;20544;-56
2022/07/22 08:42:14;;;;;;;14.07;7.93;;;26.80;97.00;;;;;;4991084;28;20113;-56
2022/07/22 08:44:40;;;;;;;9.60;7.10;;;26.80;97.00;;;;;;4991123;28;20026;-57
2022/07/22 08:47:06;;;;;;;13.30;7.72;;;27.00;95.20;;;;;;4991158;28;20026;-57
2022/07/22 08:49:32;;;;;;;10.90;7.72;;;27.00;93.70;;;;;;4991119;28;20466;-56
2022/07/22 08:51:58;;;;;;;11.32;7.47;;;26.90;93.80;;;;;;4991330;28;20045;-57
2022/07/22 08:54:24;;;;;;;16.63;8.43;;;27.10;97.30;;;;;;4991105;28;20043;-57
2022/07/22 08:56:51;;;;;;;10.97;7.83;;;27.10;93.70;;;;;;4991112;28;20490;-56
2022/07/22 08:59:17;;;;;;;16.48;8.55;;;27.00;94.80;;;;;;4991111;28;20270;-56
2022/07/22 09:02:02;;;;;;;28.75;8.07;;;27.30;97.90;;;;;;4991060;28;20026;-56
2022/07/22 09:04:28;;;;;;;9.52;6.72;;;27.40;92.70;;;;;;4989553;28;20022;-56
2022/07/22 09:06:54;;;;;;;13.85;7.45;;;27.50;93.50;;;;;;4990989;28;20030;-57
2022/07/22 09:09:32;;;;;;;10.95;6.85;;;27.80;95.60;;;;;;4991054;28;20173;-56
2022/07/22 09:12:08;;;;;;;10.45;8.05;;;28.00;92.30;;;;;;4991136;28;20054;-56
2022/07/22 09:14:48;;;;;;;10.30;7.28;;;27.90;91.10;;;;;;4990904;28;21264;-56
2022/07/22 09:17:29;;;;;;;10.65;7.70;;;28.10;94.70;;;;;;4990836;28;20030;-56
2022/07/22 09:19:59;;;;;;;14.50;8.23;;;28.20;90.70;;;;;;4990871;28;20058;-56
2022/07/22 09:22:33;;;;;;;14.27;7.80;;;28.10;90.50;;;;;;4991091;28;20095;-56
2022/07/22 09:25:19;;;;;;;12.63;7.75;;;28.00;91.70;;;;;;4990862;28;20501;-56
2022/07/22 09:27:46;;;;;;;10.98;7.95;;;27.90;91.30;;;;;;4990227;28;20034;-57
2022/07/22 09:30:34;;;;;;;11.98;8.18;;;27.90;93.60;;;;;;4991121;28;20421;-57
2022/07/22 09:32:59;;;;;;;11.38;8.50;;;27.90;91.80;;;;;;4990078;28;20117;-57
2022/07/22 09:35:25;;;;;;;15.88;8.80;;;27.90;91.10;;;;;;4989765;28;20629;-57
2022/07/22 09:37:57;;;;;;;12.10;8.73;;;28.00;92.20;;;;;;4991132;28;20026;-55
2022/07/22 09:40:29;;;;;;;12.68;8.30;;;28.10;91.10;;;;;;4990834;28;20112;-56
2022/07/22 09:42:57;;;;;;;10.95;7.53;;;28.10;90.30;;;;;;4990758;28;20080;-56
2022/07/22 09:45:25;;;;;;;12.27;8.27;;;28.20;90.90;;;;;;4990675;28;20030;-56
2022/07/22 09:47:51;;;;;;;11.23;8.18;;;28.30;90.80;;;;;;4990686;28;20129;-56
2022/07/22 09:50:23;;;;;;;10.48;8.27;;;28.20;90.00;;;;;;4990539;28;20030;-57
2022/07/22 09:52:53;;;;;;;11.98;8.00;;;28.30;90.80;;;;;;4990687;28;20034;-56
2022/07/22 09:55:21;;;;;;;14.88;9.20;;;28.30;91.70;;;;;;4990596;28;20045;-56
2022/07/22 09:57:47;;;;;;;17.20;8.90;;;28.50;92.40;;;;;;4992742;28;20026;-56
2022/07/22 10:00:16;;;;;;;13.63;8.85;;;28.40;92.10;;;;;;4994153;28;20073;-55
2022/07/22 10:02:52;;;;;;;15.15;8.73;;;28.50;94.30;;;;;;4994083;28;20092;-56
2022/07/22 10:05:21;;;;;;;18.17;8.82;;;28.60;90.30;;;;;;4993843;28;20088;-56
2022/07/22 10:07:48;;;;;;;17.30;9.15;;;29.20;90.20;;;;;;4993740;28;20026;-56
2022/07/22 10:10:17;;;;;;;11.80;8.38;;;29.20;87.10;;;;;;4993968;28;20289;-56
2022/07/22 10:12:45;;;;;;;43.92;10.75;;;29.30;86.30;;;;;;4993878;28;20092;-57
2022/07/22 10:15:11;;;;;;;13.10;8.40;;;29.50;88.40;;;;;;4993871;28;20042;-56
2022/07/22 10:17:40;;;;;;;13.53;7.93;;;29.70;90.90;;;;;;4994030;28;20042;-57
2022/07/22 10:20:07;;;;;;;11.30;8.27;;;29.80;85.20;;;;;;4993757;28;20047;-56
2022/07/22 10:22:39;;;;;;;9.95;7.70;;;29.70;84.80;;;;;;4993650;28;20066;-56
2022/07/22 10:25:05;;;;;;;10.95;8.02;;;29.80;83.20;;;;;;4992093;28;20042;-56
2022/07/22 10:27:49;;;;;;;12.30;8.13;;;29.80;83.40;;;;;;4993623;28;20486;-56
2022/07/22 10:30:18;;;;;;;10.85;7.65;;;29.80;82.20;;;;;;4993628;28;20038;-56
2022/07/22 10:32:44;;;;;;;10.80;7.28;;;29.70;80.70;;;;;;4993567;28;20088;-56
2022/07/22 10:35:10;;;;;;;12.45;7.82;;;30.00;82.40;;;;;;4991957;28;20048;-57
2022/07/22 10:37:44;;;;;;;13.23;7.57;;;30.20;84.20;;;;;;4993440;28;20129;-56
2022/07/22 10:40:15;;;;;;;10.18;7.82;;;30.30;82.30;;;;;;4993433;28;20044;-56
2022/07/22 10:43:08;;;;;;;11.13;7.57;;;30.40;84.90;;;;;;4993421;28;20029;-56
2022/07/22 10:45:38;;;;;;;10.65;7.93;;;31.00;81.90;;;;;;4991838;28;20027;-56
2022/07/22 10:48:09;;;;;;;10.38;8.23;;;30.80;82.10;;;;;;4993252;28;20037;-56
2022/07/22 10:50:35;;;;;;;15.23;8.60;;;30.80;79.50;;;;;;4993141;28;20098;-56
2022/07/22 10:53:02;;;;;;;19.55;7.85;;;30.60;78.90;;;;;;4993105;28;20038;-57
2022/07/22 10:55:28;;;;;;;10.98;8.40;;;30.30;78.10;;;;;;4992898;28;20404;-56
2022/07/22 10:57:54;;;;;;;12.93;8.60;;;30.50;83.20;;;;;;4993104;28;20033;-57
2022/07/22 11:00:20;;;;;;;11.85;8.02;;;30.80;83.20;;;;;;4993198;28;20278;-56
2022/07/22 11:02:46;;;;;;;12.88;8.15;;;31.00;88.10;;;;;;4992925;28;20438;-56
2022/07/22 11:05:12;;;;;;;10.75;8.38;;;31.10;78.60;;;;;;4993036;28;20082;-57
2022/07/22 11:07:45;;;;;;;12.52;8.35;;;31.20;81.30;;;;;;4992895;28;20033;-56
2022/07/22 11:10:12;;;;;;;10.25;7.88;;;31.50;80.40;;;;;;4992806;28;20038;-56
2022/07/22 11:12:38;;;;;;;;;;;31.60;78.30;;;;;;4993245;28;20092;-56
2022/07/22 11:15:07;;;;;;;14.32;8.25;;;31.90;80.50;;;;;;4992530;28;19913;-56
2022/07/22 11:17:34;;;;;;;10.65;8.15;;;32.10;82.30;;;;;;4992641;28;20377;-56
2022/07/22 11:20:06;;;;;;;9.88;8.15;;;32.10;77.10;;;;;;4992781;28;20034;-56
2022/07/22 11:22:32;;;;;;;11.35;7.90;;;32.30;77.00;;;;;;4992744;28;20026;-56
2022/07/22 11:25:01;;;;;;;13.77;8.30;;;32.10;73.90;;;;;;4991875;28;20070;-57
2022/07/22 11:27:27;;;;;;;14.23;8.18;;;32.30;70.20;;;;;;4992517;28;20367;-56
2022/07/22 11:29:54;;;;;;;17.33;9.80;;;32.10;74.60;;;;;;4992471;28;20027;-56
2022/07/22 11:32:25;;;;;;;20.95;8.65;;;32.20;72.20;;;;;;4992395;28;20093;-56
2022/07/22 11:34:51;;;;;;;14.52;8.32;;;32.20;69.10;;;;;;4992370;28;20042;-57
2022/07/22 11:37:25;;;;;;;9.95;8.15;;;32.10;68.20;;;;;;4992287;28;20030;-56
2022/07/22 11:39:58;;;;;;;11.10;8.05;;;32.20;78.40;;;;;;4992282;28;20041;-56
2022/07/22 11:42:25;;;;;;;13.02;8.60;;;32.70;80.60;;;;;;4992260;28;20120;-57
2022/07/22 11:44:51;;;;;;;15.85;9.13;;;32.20;68.50;;;;;;4992427;28;20381;-57
2022/07/22 11:47:16;;;;;;;16.87;9.10;;;32.10;69.50;;;;;;4992254;28;20117;-56
2022/07/22 11:49:47;;;;;;;10.33;8.87;;;32.20;73.10;;;;;;4992077;28;20477;-56
2022/07/22 11:52:13;;;;;;;14.55;9.35;;;31.30;67.50;;;;;;4991982;28;20477;-57
2022/07/22 11:54:40;;;;;;;12.07;8.80;;;31.40;68.60;;;;;;4991886;28;20045;-57
2022/07/22 11:57:07;;;;;;;12.15;8.80;;;31.40;74.80;;;;;;4992038;28;20109;-58
2022/07/22 11:59:34;;;;;;;15.07;9.10;;;31.80;68.30;;;;;;4992054;28;20033;-57
2022/07/22 12:02:02;;;;;;;13.75;9.68;;;32.00;70.30;;;;;;4991965;28;20034;-56
2022/07/22 12:04:30;;;;;;;14.27;9.48;;;31.90;68.90;;;;;;4991990;28;20172;-57
2022/07/22 12:06:58;;;;;;;13.10;9.75;;;31.50;68.30;;;;;;4990520;28;20572;-57
2022/07/22 12:09:36;;;;;;;11.65;8.43;;;31.30;69.30;;;;;;4991850;28;20030;-57
2022/07/22 12:12:02;;;;;;;;;;;31.80;71.30;;;;;;4992354;28;20520;-57
2022/07/22 12:14:29;;;;;;;13.95;9.15;;;31.80;67.20;;;;;;4991704;28;19953;-57
2022/07/22 12:17:01;;;;;;;13.07;9.32;;;31.80;67.10;;;;;;4991478;28;20485;-57
2022/07/22 12:19:29;;;;;;;12.55;10.05;;;31.70;68.00;;;;;;4991261;28;20038;-57
2022/07/22 12:22:03;;;;;;;16.45;9.90;;;31.30;67.00;;;;;;4991561;28;20485;-57
2022/07/22 12:24:42;;;;;;;10.63;8.95;;;31.50;75.90;;;;;;4991531;28;20278;-57
2022/07/22 12:27:09;;;;;;;12.35;9.05;;;31.80;71.90;;;;;;4991670;28;20022;-57
2022/07/22 12:29:35;;;;;;;13.50;9.25;;;31.90;73.00;;;;;;4991451;28;20038;-57
2022/07/22 12:32:02;;;;;;;14.30;8.70;;;31.80;68.80;;;;;;4991560;28;20038;-57
2022/07/22 12:34:37;;;;;;;12.63;8.98;;;31.80;70.60;;;;;;4991376;28;20077;-56